• Join FlightAware (Why Join?)
  • Login
  • US Flag 
01:07PM EDT


 

Airport Tracker/Info


-or-


 

Live Flight TrackerFlight Track Log ✈ EJA941 ✈ 09-Oct-2013 ✈ KTEB - KLBE

Flight Track Log - Related Links

Times and Time Zones

All times are in EDT time to prevent confusion due to time zone crossing. See the EJA941 flight status page for this flight to view local times or setup timezone preferences in your user account.

Time Position Orientation Groundspeed Altitude Reporting Facility
EDT Latitude Longitude Course Direction KTS MPH feet Rate Location/Type
10:20AM 40.8667 -74.0500 252° West 176 203 1,600  Level New York TRACON
10:21AM 40.9167 -74.0500 360° North 227 261 3,300 1,920 Climbing New York TRACON
10:22AM 40.9167 -74.1500 270° West 296 341 5,500 3,180 Climbing New York TRACON
10:23AM 40.9000 -74.2667 259° West 297 342 9,700 3,120 Climbing New York TRACON
10:24AM 40.8872 -74.3997 263° West 312 359 12,400 1,920 Climbing New York Center
10:25AM 40.8725 -74.5333 262° West 351 404 14,000 1,680 Climbing New York Center
10:26AM 40.7790 -74.8741 252° West  Level Estimated
10:26AM 40.8553 -74.6778 261° West 392 451 15,800  Level New York Center
10:27AM 40.8317 -74.8192 258° West 404 465 17,400 1,500 Climbing New York Center
10:28AM 40.7914 -74.9647 250° West 414 476 18,900 1,500 Climbing New York Center
10:29AM 40.7533 -75.0911 248° West 419 482 20,500 1,740 Climbing New York Center
10:30AM 40.7125 -75.2364 250° West 425 489 22,400 1,860 Climbing New York Center
10:31AM 40.6714 -75.3869 250° West 425 489 24,300 1,680 Climbing New York Center
10:32AM 40.6278 -75.5397 249° West 436 502 25,800 780 Climbing New York Center
10:33AM 40.5814 -75.7033 250° West 457 526 25,900 60 Climbing New York Center
10:34AM 40.5306 -75.8717 248° West 479 551 26,000  Climbing New York Center
10:35AM 40.4722 -76.0583 248° West 506 582 26,000  Level New York Center
10:36AM 40.4231 -76.2264 249° West 506 582 26,000  Level New York Center
10:37AM 40.3711 -76.3967 248° West 506 582 26,000  Level New York Center
10:38AM 40.3153 -76.5636 246° West 500 575 26,000  Level New York Center
10:39AM 40.2533 -76.7192 242° Southwest 495 570 26,000  Level New York Center
10:40AM 40.2111 -76.8922 252° West 495 570 26,000  Level New York Center
10:41AM 40.1728 -77.0681 254° West 495 570 26,000  Level New York Center
10:42AM 40.1339 -77.2467 254° West 506 582 26,000  Level New York Center
10:43AM 40.0950 -77.4194 254° West 506 582 26,000 -840 Level New York Center
10:45AM 40.0161 -77.7606 253° West 509 586 23,500 -1,320 Descending Cleveland Center
10:46AM 39.9794 -77.9633 257° West 490 564 22,000 -1,020 Descending Cleveland Center
10:48AM 40.0083 -78.1303 283° West 476 548 21,400 -1,320 Descending Cleveland Center
10:49AM 40.0442 -78.2972 286° West 474 545 19,300 -2,280 Descending Cleveland Center
10:49AM 40.0589 -78.3733 284° West 460 529 18,200 -1,980 Descending Cleveland Center
10:50AM 40.0775 -78.4547 287° West 460 529 17,300 -1,920 Descending Cleveland Center
10:50AM 40.0856 -78.4886 287° West 449 517 16,700 -3,780 Descending Cleveland Center
10:51AM 40.1203 -78.6597 285° West 449 517 12,900 -3,060 Descending Cleveland Center
10:52AM 40.1425 -78.7619 286° West 438 504 10,800 -2,520 Descending Cleveland Center
10:52AM 40.1511 -78.8003 286° West 389 448 10,400 -1,680 Descending Cleveland Center
10:53AM 40.1733 -78.9019 286° West 355 409 9,100 -1,500 Descending Cleveland Center
10:53AM 40.1756 -78.9131 285° West 294 338 8,900 -1,860 Descending Cleveland Center
10:54AM 40.1950 -79.0075 285° West 315 362 7,200 -1,920 Descending Cleveland Center
10:54AM 40.1964 -79.0169 281° West 281 323 7,000 -1,980 Descending Cleveland Center
10:55AM 40.2156 -79.1083 285° West 302 348 5,200 -1,260 Descending Cleveland Center
10:56AM 40.2356 -79.2083 285° West 294 338 4,500 -420 Descending Cleveland Center
10:57AM 40.2292 -79.3033 265° West 249 287 4,500  Level Cleveland Center
10:57AM 40.2317 -79.2967 64° Northeast 268 308 4,500 -120 Level Cleveland Center
10:58AM 40.2081 -79.3797 250° West 215 247 4,400 -120 Descending Cleveland Center
10:58AM 40.2131 -79.3806 353° North 238 274 4,400 -1,320 Level Cleveland Center
10:59AM 40.2094 -79.4347 265° West 152 175 3,100 -1,680 Descending Cleveland Center
10:59AM 40.2175 -79.4461 313° West 158 182 2,700 -1,200 Descending Cleveland Center
11:00AM 40.2506 -79.4444 North 150 173 1,700 -600 Descending Cleveland Center
11:01AM 40.2719 -79.4119 49° Northeast 141 162 1,500 -240 Descending Cleveland Center
11:03AM 40.2667 -79.4000 294° West  Level FlightAware Approximate
11:10AM 40.2746 -79.4068 294° West  Level Estimated